sensor_id;sensor_type;location;lat;lon;timestamp;pressure;altitude;pressure_sealevel;temperature;humidity
21361;BME280;10839;43.206;23.550;2022-09-03T00:00:58;97202.00;;;18.47;100.00
21361;BME280;10839;43.206;23.550;2022-09-03T00:03:39;97202.59;;;18.49;100.00
21361;BME280;10839;43.206;23.550;2022-09-03T00:06:27;97200.84;;;18.43;100.00
21361;BME280;10839;43.206;23.550;2022-09-03T00:09:20;97202.97;;;18.41;100.00
21361;BME280;10839;43.206;23.550;2022-09-03T00:12:00;97201.53;;;18.50;100.00
21361;BME280;10839;43.206;23.550;2022-09-03T00:14:50;97207.44;;;18.47;100.00
21361;BME280;10839;43.206;23.550;2022-09-03T00:17:43;97209.81;;;18.55;100.00
21361;BME280;10839;43.206;23.550;2022-09-03T00:22:53;97210.28;;;18.52;100.00
21361;BME280;10839;43.206;23.550;2022-09-03T00:25:25;97221.19;;;18.52;100.00
21361;BME280;10839;43.206;23.550;2022-09-03T00:27:56;97218.56;;;18.57;100.00
21361;BME280;10839;43.206;23.550;2022-09-03T00:30:23;97218.56;;;18.57;100.00
21361;BME280;10839;43.206;23.550;2022-09-03T00:32:56;97210.63;;;18.55;100.00
21361;BME280;10839;43.206;23.550;2022-09-03T00:35:31;97218.44;;;18.52;100.00
21361;BME280;10839;43.206;23.550;2022-09-03T00:37:59;97219.09;;;18.42;100.00
21361;BME280;10839;43.206;23.550;2022-09-03T00:40:51;97214.50;;;18.31;100.00
21361;BME280;10839;43.206;23.550;2022-09-03T01:00:17;97223.34;;;18.50;100.00
21361;BME280;10839;43.206;23.550;2022-09-03T01:13:37;97227.75;;;18.39;100.00
21361;BME280;10839;43.206;23.550;2022-09-03T01:25:11;97213.66;;;18.31;100.00
21361;BME280;10839;43.206;23.550;2022-09-03T01:30:24;97218.75;;;18.27;100.00
21361;BME280;10839;43.206;23.550;2022-09-03T01:35:45;97219.34;;;18.29;100.00
21361;BME280;10839;43.206;23.550;2022-09-03T01:38:33;97221.44;;;18.39;100.00
21361;BME280;10839;43.206;23.550;2022-09-03T01:41:25;97223.91;;;18.52;100.00
21361;BME280;10839;43.206;23.550;2022-09-03T01:44:20;97226.44;;;18.30;100.00
21361;BME280;10839;43.206;23.550;2022-09-03T01:47:06;97232.63;;;18.26;100.00
21361;BME280;10839;43.206;23.550;2022-09-03T01:49:40;97236.13;;;18.38;100.00
21361;BME280;10839;43.206;23.550;2022-09-03T01:52:15;97229.44;;;18.17;100.00
21361;BME280;10839;43.206;23.550;2022-09-03T02:00:03;97233.69;;;18.25;100.00
21361;BME280;10839;43.206;23.550;2022-09-03T02:02:39;97235.94;;;18.28;100.00
21361;BME280;10839;43.206;23.550;2022-09-03T02:05:08;97234.75;;;18.24;100.00
21361;BME280;10839;43.206;23.550;2022-09-03T02:07:55;97225.31;;;18.15;100.00
21361;BME280;10839;43.206;23.550;2022-09-03T02:10:26;97234.41;;;18.20;100.00
21361;BME280;10839;43.206;23.550;2022-09-03T02:13:04;97236.31;;;18.20;100.00
21361;BME280;10839;43.206;23.550;2022-09-03T02:15:31;97235.06;;;18.39;100.00
21361;BME280;10839;43.206;23.550;2022-09-03T02:18:03;97229.66;;;18.27;100.00
21361;BME280;10839;43.206;23.550;2022-09-03T02:20:31;97227.88;;;18.33;100.00
21361;BME280;10839;43.206;23.550;2022-09-03T02:22:58;97226.34;;;18.25;100.00
21361;BME280;10839;43.206;23.550;2022-09-03T02:25:31;97225.38;;;18.31;100.00
21361;BME280;10839;43.206;23.550;2022-09-03T02:27:59;97238.03;;;18.49;100.00
21361;BME280;10839;43.206;23.550;2022-09-03T02:30:25;97237.44;;;18.35;100.00
21361;BME280;10839;43.206;23.550;2022-09-03T02:32:51;97233.59;;;18.20;100.00
21361;BME280;10839;43.206;23.550;2022-09-03T02:35:17;97247.56;;;18.12;100.00
21361;BME280;10839;43.206;23.550;2022-09-03T02:37:44;97243.16;;;18.22;100.00
21361;BME280;10839;43.206;23.550;2022-09-03T02:40:09;97242.44;;;18.27;100.00
21361;BME280;10839;43.206;23.550;2022-09-03T02:42:37;97240.91;;;18.31;100.00
21361;BME280;10839;43.206;23.550;2022-09-03T02:45:12;97249.75;;;18.38;100.00
21361;BME280;10839;43.206;23.550;2022-09-03T02:47:43;97248.81;;;18.44;100.00
21361;BME280;10839;43.206;23.550;2022-09-03T02:50:11;97239.91;;;18.37;100.00
21361;BME280;10839;43.206;23.550;2022-09-03T02:52:36;97236.13;;;18.38;100.00
21361;BME280;10839;43.206;23.550;2022-09-03T02:55:03;97245.38;;;18.37;100.00
21361;BME280;10839;43.206;23.550;2022-09-03T02:57:28;97236.75;;;18.28;100.00
21361;BME280;10839;43.206;23.550;2022-09-03T02:59:55;97233.03;;;18.06;100.00
21361;BME280;10839;43.206;23.550;2022-09-03T03:02:21;97231.22;;;18.23;100.00
21361;BME280;10839;43.206;23.550;2022-09-03T03:04:46;97224.22;;;18.16;100.00
21361;BME280;10839;43.206;23.550;2022-09-03T03:07:12;97227.06;;;18.21;100.00
21361;BME280;10839;43.206;23.550;2022-09-03T03:09:38;97220.44;;;18.17;100.00
21361;BME280;10839;43.206;23.550;2022-09-03T03:12:04;97229.19;;;18.19;100.00
21361;BME280;10839;43.206;23.550;2022-09-03T03:14:31;97229.09;;;18.14;100.00
21361;BME280;10839;43.206;23.550;2022-09-03T03:16:58;97232.66;;;18.03;100.00
21361;BME280;10839;43.206;23.550;2022-09-03T03:19:23;97217.69;;;18.17;100.00
21361;BME280;10839;43.206;23.550;2022-09-03T03:21:50;97230.97;;;18.25;100.00
21361;BME280;10839;43.206;23.550;2022-09-03T03:24:16;97238.22;;;18.08;100.00
21361;BME280;10839;43.206;23.550;2022-09-03T03:26:42;97234.91;;;18.06;100.00
21361;BME280;10839;43.206;23.550;2022-09-03T03:29:14;97239.97;;;18.14;100.00
21361;BME280;10839;43.206;23.550;2022-09-03T03:31:41;97231.13;;;18.18;100.00
21361;BME280;10839;43.206;23.550;2022-09-03T03:34:07;97221.94;;;18.36;100.00
21361;BME280;10839;43.206;23.550;2022-09-03T03:36:34;97234.94;;;18.34;100.00
21361;BME280;10839;43.206;23.550;2022-09-03T03:39:00;97238.75;;;18.33;100.00
21361;BME280;10839;43.206;23.550;2022-09-03T03:41:30;97242.81;;;18.19;100.00
21361;BME280;10839;43.206;23.550;2022-09-03T03:43:58;97244.72;;;18.07;100.00
21361;BME280;10839;43.206;23.550;2022-09-03T03:46:29;97244.94;;;18.17;100.00
21361;BME280;10839;43.206;23.550;2022-09-03T03:48:56;97237.69;;;18.34;100.00
21361;BME280;10839;43.206;23.550;2022-09-03T03:51:22;97241.38;;;18.28;100.00
21361;BME280;10839;43.206;23.550;2022-09-03T03:53:48;97241.53;;;18.21;100.00
21361;BME280;10839;43.206;23.550;2022-09-03T03:56:14;97251.09;;;18.24;100.00
21361;BME280;10839;43.206;23.550;2022-09-03T03:58:41;97254.50;;;18.31;100.00
21361;BME280;10839;43.206;23.550;2022-09-03T04:01:16;97240.69;;;18.21;100.00
21361;BME280;10839;43.206;23.550;2022-09-03T04:03:42;97245.53;;;18.19;100.00
21361;BME280;10839;43.206;23.550;2022-09-03T04:06:09;97252.97;;;18.35;100.00
21361;BME280;10839;43.206;23.550;2022-09-03T04:08:37;97251.19;;;18.40;100.00
21361;BME280;10839;43.206;23.550;2022-09-03T04:11:06;97249.16;;;18.36;100.00
21361;BME280;10839;43.206;23.550;2022-09-03T04:13:34;97253.09;;;18.28;100.00
21361;BME280;10839;43.206;23.550;2022-09-03T04:16:09;97263.19;;;18.28;100.00
21361;BME280;10839;43.206;23.550;2022-09-03T04:18:36;97251.78;;;18.31;100.00
21361;BME280;10839;43.206;23.550;2022-09-03T04:21:14;97247.63;;;18.28;100.00
21361;BME280;10839;43.206;23.550;2022-09-03T04:23:43;97254.50;;;18.42;100.00
21361;BME280;10839;43.206;23.550;2022-09-03T04:26:13;97248.81;;;18.44;100.00
21361;BME280;10839;43.206;23.550;2022-09-03T04:28:41;97256.41;;;18.30;100.00
21361;BME280;10839;43.206;23.550;2022-09-03T04:31:09;97258.44;;;18.35;100.00
21361;BME280;10839;43.206;23.550;2022-09-03T04:33:36;97269.66;;;18.38;100.00
21361;BME280;10839;43.206;23.550;2022-09-03T04:36:13;97270.13;;;18.47;100.00
21361;BME280;10839;43.206;23.550;2022-09-03T04:38:43;97268.09;;;18.54;100.00
21361;BME280;10839;43.206;23.550;2022-09-03T04:41:16;97276.16;;;18.49;100.00
21361;BME280;10839;43.206;23.550;2022-09-03T04:43:42;97273.06;;;18.57;100.00
21361;BME280;10839;43.206;23.550;2022-09-03T04:46:12;97277.84;;;18.50;100.00
21361;BME280;10839;43.206;23.550;2022-09-03T04:48:39;97281.53;;;18.72;99.62
21361;BME280;10839;43.206;23.550;2022-09-03T04:51:10;97284.25;;;18.44;100.00
21361;BME280;10839;43.206;23.550;2022-09-03T04:53:51;97287.97;;;18.66;100.00
21361;BME280;10839;43.206;23.550;2022-09-03T04:56:19;97291.09;;;18.58;100.00
21361;BME280;10839;43.206;23.550;2022-09-03T04:58:47;97285.19;;;18.38;100.00
21361;BME280;10839;43.206;23.550;2022-09-03T05:01:21;97287.56;;;18.46;100.00
21361;BME280;10839;43.206;23.550;2022-09-03T05:03:47;97294.78;;;18.40;100.00
21361;BME280;10839;43.206;23.550;2022-09-03T05:06:13;97294.88;;;18.57;100.00
21361;BME280;10839;43.206;23.550;2022-09-03T05:09:19;97300.53;;;18.67;100.00
21361;BME280;10839;43.206;23.550;2022-09-03T05:11:46;97306.41;;;18.47;100.00
21361;BME280;10839;43.206;23.550;2022-09-03T05:14:11;97305.91;;;18.50;99.76
21361;BME280;10839;43.206;23.550;2022-09-03T05:16:37;97308.38;;;18.52;98.31
21361;BME280;10839;43.206;23.550;2022-09-03T05:19:03;97310.06;;;18.53;99.50
21361;BME280;10839;43.206;23.550;2022-09-03T05:21:30;97316.19;;;18.60;98.69
21361;BME280;10839;43.206;23.550;2022-09-03T05:23:58;97302.81;;;18.35;99.20
21361;BME280;10839;43.206;23.550;2022-09-03T05:26:27;97311.22;;;18.57;98.56
21361;BME280;10839;43.206;23.550;2022-09-03T05:28:58;97310.06;;;18.53;98.53
21361;BME280;10839;43.206;23.550;2022-09-03T05:31:26;97316.47;;;18.47;98.87
21361;BME280;10839;43.206;23.550;2022-09-03T05:33:55;97320.84;;;18.59;95.62
21361;BME280;10839;43.206;23.550;2022-09-03T05:36:24;97321.06;;;18.58;96.54
21361;BME280;10839;43.206;23.550;2022-09-03T05:38:51;97329.81;;;18.60;96.82
21361;BME280;10839;43.206;23.550;2022-09-03T05:41:21;97322.44;;;18.72;95.81
21361;BME280;10839;43.206;23.550;2022-09-03T05:43:49;97328.28;;;18.64;96.59
21361;BME280;10839;43.206;23.550;2022-09-03T05:46:20;97323.28;;;18.72;96.39
21361;BME280;10839;43.206;23.550;2022-09-03T05:48:46;97327.03;;;18.83;95.48
21361;BME280;10839;43.206;23.550;2022-09-03T05:51:14;97333.84;;;18.69;96.28
21361;BME280;10839;43.206;23.550;2022-09-03T05:53:43;97337.75;;;18.73;95.48
21361;BME280;10839;43.206;23.550;2022-09-03T05:56:16;97328.88;;;18.66;96.18
21361;BME280;10839;43.206;23.550;2022-09-03T05:58:47;97338.69;;;18.67;97.52
21361;BME280;10839;43.206;23.550;2022-09-03T06:01:20;97345.34;;;18.71;97.63
21361;BME280;10839;43.206;23.550;2022-09-03T06:03:52;97346.91;;;18.95;95.70
21361;BME280;10839;43.206;23.550;2022-09-03T06:06:19;97346.84;;;18.78;96.27
21361;BME280;10839;43.206;23.550;2022-09-03T06:08:49;97352.22;;;18.62;97.27
21361;BME280;10839;43.206;23.550;2022-09-03T06:11:16;97339.00;;;18.82;95.20
21361;BME280;10839;43.206;23.550;2022-09-03T06:13:42;97340.16;;;18.97;94.45
21361;BME280;10839;43.206;23.550;2022-09-03T06:16:07;97336.47;;;18.92;94.62
21361;BME280;10839;43.206;23.550;2022-09-03T06:18:34;97347.38;;;18.92;93.90
21361;BME280;10839;43.206;23.550;2022-09-03T06:21:02;97340.88;;;19.21;91.22
21361;BME280;10839;43.206;23.550;2022-09-03T06:23:30;97342.34;;;19.12;91.91
21361;BME280;10839;43.206;23.550;2022-09-03T06:26:05;97344.28;;;19.00;92.52
21361;BME280;10839;43.206;23.550;2022-09-03T06:28:36;97337.13;;;19.10;93.08
21361;BME280;10839;43.206;23.550;2022-09-03T06:31:08;97341.75;;;19.38;90.44
21361;BME280;10839;43.206;23.550;2022-09-03T06:33:37;97330.16;;;19.03;92.29
21361;BME280;10839;43.206;23.550;2022-09-03T06:36:05;97344.72;;;19.37;90.11
21361;BME280;10839;43.206;23.550;2022-09-03T06:38:33;97340.09;;;19.37;89.24
21361;BME280;10839;43.206;23.550;2022-09-03T06:41:05;97340.50;;;19.29;89.52
21361;BME280;10839;43.206;23.550;2022-09-03T06:43:34;97349.63;;;19.23;89.88
21361;BME280;10839;43.206;23.550;2022-09-03T06:48:34;97352.81;;;19.32;89.81
21361;BME280;10839;43.206;23.550;2022-09-03T06:51:12;97355.03;;;19.46;90.03
21361;BME280;10839;43.206;23.550;2022-09-03T06:53:44;97352.38;;;19.51;89.17
21361;BME280;10839;43.206;23.550;2022-09-03T06:56:13;97354.09;;;19.41;89.41
21361;BME280;10839;43.206;23.550;2022-09-03T06:58:42;97356.84;;;19.57;87.35
21361;BME280;10839;43.206;23.550;2022-09-03T07:01:13;97346.69;;;19.86;86.94
21361;BME280;10839;43.206;23.550;2022-09-03T07:03:41;97351.22;;;19.97;87.29
21361;BME280;10839;43.206;23.550;2022-09-03T07:06:12;97351.22;;;20.13;86.10
21361;BME280;10839;43.206;23.550;2022-09-03T07:08:39;97358.94;;;20.16;85.06
21361;BME280;10839;43.206;23.550;2022-09-03T07:11:11;97353.88;;;20.08;84.58
21361;BME280;10839;43.206;23.550;2022-09-03T07:13:40;97355.53;;;20.09;84.38
21361;BME280;10839;43.206;23.550;2022-09-03T07:16:10;97357.09;;;20.39;83.88
21361;BME280;10839;43.206;23.550;2022-09-03T07:18:36;97349.91;;;20.33;85.08
21361;BME280;10839;43.206;23.550;2022-09-03T07:21:05;97358.25;;;20.43;82.98
21361;BME280;10839;43.206;23.550;2022-09-03T07:23:32;97365.19;;;20.50;82.72
21361;BME280;10839;43.206;23.550;2022-09-03T07:26:01;97371.88;;;20.59;81.62
21361;BME280;10839;43.206;23.550;2022-09-03T07:28:29;97368.09;;;20.44;82.73
21361;BME280;10839;43.206;23.550;2022-09-03T07:31:04;97381.25;;;20.47;81.88
21361;BME280;10839;43.206;23.550;2022-09-03T07:33:31;97380.19;;;20.48;81.56
21361;BME280;10839;43.206;23.550;2022-09-03T07:36:08;97382.31;;;20.62;80.79
21361;BME280;10839;43.206;23.550;2022-09-03T07:38:35;97384.44;;;20.39;83.12
21361;BME280;10839;43.206;23.550;2022-09-03T07:41:04;97387.16;;;20.39;82.72
21361;BME280;10839;43.206;23.550;2022-09-03T07:43:35;97399.25;;;20.43;83.28
21361;BME280;10839;43.206;23.550;2022-09-03T07:46:06;97388.63;;;20.63;82.13
21361;BME280;10839;43.206;23.550;2022-09-03T07:48:33;97397.06;;;20.45;82.82
21361;BME280;10839;43.206;23.550;2022-09-03T07:50:59;97403.91;;;20.25;82.90
21361;BME280;10839;43.206;23.550;2022-09-03T07:53:28;97403.06;;;20.08;84.81
21361;BME280;10839;43.206;23.550;2022-09-03T07:56:08;97408.88;;;20.28;84.26
21361;BME280;10839;43.206;23.550;2022-09-03T07:58:36;97404.22;;;20.12;85.47
21361;BME280;10839;43.206;23.550;2022-09-03T08:01:08;97408.88;;;20.28;84.20
21361;BME280;10839;43.206;23.550;2022-09-03T08:03:35;97389.16;;;20.26;84.89
21361;BME280;10839;43.206;23.550;2022-09-03T08:06:06;97405.06;;;20.29;84.94
21361;BME280;10839;43.206;23.550;2022-09-03T08:08:34;97410.03;;;20.49;84.24
21361;BME280;10839;43.206;23.550;2022-09-03T08:11:10;97405.09;;;20.68;82.90
21361;BME280;10839;43.206;23.550;2022-09-03T08:13:44;97408.00;;;20.45;84.18
21361;BME280;10839;43.206;23.550;2022-09-03T08:16:12;97402.19;;;20.19;84.59
21361;BME280;10839;43.206;23.550;2022-09-03T08:18:39;97407.72;;;20.24;85.56
21361;BME280;10839;43.206;23.550;2022-09-03T08:21:10;97400.41;;;20.13;86.91
21361;BME280;10839;43.206;23.550;2022-09-03T08:23:39;97403.47;;;20.50;84.69
21361;BME280;10839;43.206;23.550;2022-09-03T08:26:06;97399.28;;;20.26;86.09
21361;BME280;10839;43.206;23.550;2022-09-03T08:28:34;97395.63;;;20.20;88.05
21361;BME280;10839;43.206;23.550;2022-09-03T08:31:09;97402.41;;;20.34;87.70
21361;BME280;10839;43.206;23.550;2022-09-03T08:33:40;97400.75;;;20.33;86.87
21361;BME280;10839;43.206;23.550;2022-09-03T08:36:12;97410.38;;;20.36;86.64
21361;BME280;10839;43.206;23.550;2022-09-03T08:38:42;97402.41;;;20.34;86.96
21361;BME280;10839;43.206;23.550;2022-09-03T08:41:17;97403.41;;;20.28;87.65
21361;BME280;10839;43.206;23.550;2022-09-03T08:44:00;97398.94;;;20.39;86.19
21361;BME280;10839;43.206;23.550;2022-09-03T08:49:30;97402.88;;;20.48;87.13
21361;BME280;10839;43.206;23.550;2022-09-03T08:52:02;97396.44;;;20.38;87.45
21361;BME280;10839;43.206;23.550;2022-09-03T08:54:31;97401.81;;;20.49;86.78
21361;BME280;10839;43.206;23.550;2022-09-03T08:57:01;97398.81;;;20.51;86.33
21361;BME280;10839;43.206;23.550;2022-09-03T08:59:30;97396.38;;;20.71;85.76
21361;BME280;10839;43.206;23.550;2022-09-03T09:02:31;97399.47;;;20.58;84.46
21361;BME280;10839;43.206;23.550;2022-09-03T09:05:17;97400.25;;;20.75;83.53
21361;BME280;10839;43.206;23.550;2022-09-03T09:08:38;97399.16;;;21.14;81.45
21361;BME280;10839;43.206;23.550;2022-09-03T09:11:22;97405.72;;;20.96;81.74
21361;BME280;10839;43.206;23.550;2022-09-03T09:16:41;97407.72;;;21.44;79.30
21361;BME280;10839;43.206;23.550;2022-09-03T09:19:38;97394.09;;;21.49;78.98
21361;BME280;10839;43.206;23.550;2022-09-03T09:22:10;97400.91;;;21.73;77.53
21361;BME280;10839;43.206;23.550;2022-09-03T09:24:41;97403.09;;;21.76;78.00
21361;BME280;10839;43.206;23.550;2022-09-03T09:27:14;97399.16;;;21.89;76.70
21361;BME280;10839;43.206;23.550;2022-09-03T09:29:47;97395.81;;;22.13;76.47
21361;BME280;10839;43.206;23.550;2022-09-03T09:32:14;97398.50;;;22.08;76.31
21361;BME280;10839;43.206;23.550;2022-09-03T09:34:42;97411.56;;;22.64;72.71
21361;BME280;10839;43.206;23.550;2022-09-03T09:37:14;97402.41;;;22.91;72.31
21361;BME280;10839;43.206;23.550;2022-09-03T09:39:52;97409.84;;;22.53;73.27
21361;BME280;10839;43.206;23.550;2022-09-03T09:42:20;97404.75;;;22.72;73.45
21361;BME280;10839;43.206;23.550;2022-09-03T09:44:47;97406.50;;;23.50;70.25
21361;BME280;10839;43.206;23.550;2022-09-03T09:47:26;97414.25;;;23.68;69.14
21361;BME280;10839;43.206;23.550;2022-09-03T09:49:57;97411.72;;;22.90;70.78
21361;BME280;10839;43.206;23.550;2022-09-03T09:52:26;97417.47;;;23.40;69.79
21361;BME280;10839;43.206;23.550;2022-09-03T09:55:06;97415.91;;;23.89;67.50
21361;BME280;10839;43.206;23.550;2022-09-03T09:57:32;97417.38;;;23.25;69.54
21361;BME280;10839;43.206;23.550;2022-09-03T10:00:15;97415.25;;;23.32;69.76
21361;BME280;10839;43.206;23.550;2022-09-03T10:02:49;97422.47;;;23.68;68.69
21361;BME280;10839;43.206;23.550;2022-09-03T10:05:27;97423.38;;;23.17;69.95
21361;BME280;10839;43.206;23.550;2022-09-03T10:08:37;97426.53;;;23.35;68.83
21361;BME280;10839;43.206;23.550;2022-09-03T10:11:03;97422.84;;;23.25;69.54
21361;BME280;10839;43.206;23.550;2022-09-03T10:13:38;97430.13;;;23.51;67.79
21361;BME280;10839;43.206;23.550;2022-09-03T10:16:21;97434.34;;;23.83;67.06
21361;BME280;10839;43.206;23.550;2022-09-03T10:21:43;97439.50;;;23.60;68.01
21361;BME280;10839;43.206;23.550;2022-09-03T10:26:58;97426.84;;;23.54;67.67
21361;BME280;10839;43.206;23.550;2022-09-03T10:29:23;97428.53;;;23.70;67.85
21361;BME280;10839;43.206;23.550;2022-09-03T10:37:37;97427.44;;;23.81;66.47
21361;BME280;10839;43.206;23.550;2022-09-03T10:49:23;97420.84;;;23.72;66.67
21361;BME280;10839;43.206;23.550;2022-09-03T10:54:52;97426.19;;;24.19;64.92
21361;BME280;10839;43.206;23.550;2022-09-03T10:57:40;97426.97;;;24.49;63.56
21361;BME280;10839;43.206;23.550;2022-09-03T11:00:10;97428.63;;;24.50;63.18
21361;BME280;10839;43.206;23.550;2022-09-03T11:05:34;97428.38;;;24.47;63.02
21361;BME280;10839;43.206;23.550;2022-09-03T11:08:56;97426.97;;;24.39;63.85
21361;BME280;10839;43.206;23.550;2022-09-03T11:11:41;97429.44;;;24.11;65.59
21361;BME280;10839;43.206;23.550;2022-09-03T11:14:13;97423.13;;;24.10;64.90
21361;BME280;10839;43.206;23.550;2022-09-03T11:16:53;97423.94;;;24.11;64.59
21361;BME280;10839;43.206;23.550;2022-09-03T11:19:30;97425.28;;;23.88;65.83
21361;BME280;10839;43.206;23.550;2022-09-03T11:21:57;97434.69;;;24.07;65.22
21361;BME280;10839;43.206;23.550;2022-09-03T11:24:26;97419.81;;;23.98;66.40
21361;BME280;10839;43.206;23.550;2022-09-03T11:30:05;97419.84;;;24.23;64.90
21361;BME280;10839;43.206;23.550;2022-09-03T11:38:00;97430.00;;;24.08;65.89
21361;BME280;10839;43.206;23.550;2022-09-03T11:40:38;97425.03;;;24.65;64.46
21361;BME280;10839;43.206;23.550;2022-09-03T11:45:38;97433.00;;;24.66;64.04
21361;BME280;10839;43.206;23.550;2022-09-03T11:48:40;97431.94;;;24.37;63.70
21361;BME280;10839;43.206;23.550;2022-09-03T11:51:03;97433.59;;;24.73;62.04
21361;BME280;10839;43.206;23.550;2022-09-03T11:53:41;97433.03;;;24.56;62.15
21361;BME280;10839;43.206;23.550;2022-09-03T11:58:35;97432.47;;;24.19;62.14
21361;BME280;10839;43.206;23.550;2022-09-03T12:01:08;97422.59;;;24.33;62.34
21361;BME280;10839;43.206;23.550;2022-09-03T12:09:10;97418.19;;;24.22;62.81
21361;BME280;10839;43.206;23.550;2022-09-03T12:11:55;97422.59;;;24.13;62.40
21361;BME280;10839;43.206;23.550;2022-09-03T12:14:43;97417.56;;;23.80;63.69
21361;BME280;10839;43.206;23.550;2022-09-03T12:19:53;97427.25;;;24.18;63.57
21361;BME280;10839;43.206;23.550;2022-09-03T12:22:23;97409.91;;;24.32;62.17
21361;BME280;10839;43.206;23.550;2022-09-03T12:24:50;97411.31;;;24.30;62.79
21361;BME280;10839;43.206;23.550;2022-09-03T12:27:26;97417.66;;;24.30;61.42
21361;BME280;10839;43.206;23.550;2022-09-03T12:29:56;97414.84;;;23.95;62.54
21361;BME280;10839;43.206;23.550;2022-09-03T12:32:29;97420.94;;;24.02;63.26
21361;BME280;10839;43.206;23.550;2022-09-03T12:34:57;97417.06;;;24.03;63.37
21361;BME280;10839;43.206;23.550;2022-09-03T12:37:25;97412.66;;;23.92;63.81
21361;BME280;10839;43.206;23.550;2022-09-03T12:39:55;97419.75;;;23.78;63.67
21361;BME280;10839;43.206;23.550;2022-09-03T12:42:25;97400.44;;;23.43;65.56
21361;BME280;10839;43.206;23.550;2022-09-03T12:44:52;97410.34;;;23.49;66.52
21361;BME280;10839;43.206;23.550;2022-09-03T12:47:21;97402.50;;;23.21;68.66
21361;BME280;10839;43.206;23.550;2022-09-03T12:49:50;97418.13;;;23.10;69.31
21361;BME280;10839;43.206;23.550;2022-09-03T12:52:28;97415.63;;;23.04;70.29
21361;BME280;10839;43.206;23.550;2022-09-03T12:55:00;97412.53;;;23.42;68.95
21361;BME280;10839;43.206;23.550;2022-09-03T13:00:09;97406.56;;;23.03;70.08
21361;BME280;10839;43.206;23.550;2022-09-03T13:02:49;97405.78;;;23.13;69.62
21361;BME280;10839;43.206;23.550;2022-09-03T13:05:24;97410.56;;;23.27;69.90
21361;BME280;10839;43.206;23.550;2022-09-03T13:07:56;97407.38;;;23.70;67.42
21361;BME280;10839;43.206;23.550;2022-09-03T13:10:27;97409.25;;;23.55;67.50
21361;BME280;10839;43.206;23.550;2022-09-03T13:13:05;97404.06;;;23.58;68.05
21361;BME280;10839;43.206;23.550;2022-09-03T13:15:40;97393.03;;;23.48;68.25
21361;BME280;10839;43.206;23.550;2022-09-03T13:18:18;97404.00;;;23.38;67.98
21361;BME280;10839;43.206;23.550;2022-09-03T13:21:09;97397.47;;;23.64;66.86
21361;BME280;10839;43.206;23.550;2022-09-03T13:24:16;97399.75;;;23.16;69.34
21361;BME280;10839;43.206;23.550;2022-09-03T13:29:56;97402.44;;;23.01;70.09
21361;BME280;10839;43.206;23.550;2022-09-03T13:33:00;97403.69;;;22.78;71.29
21361;BME280;10839;43.206;23.550;2022-09-03T13:35:37;97405.63;;;22.83;71.57
21361;BME280;10839;43.206;23.550;2022-09-03T13:40:59;97390.72;;;22.63;71.64
21361;BME280;10839;43.206;23.550;2022-09-03T13:43:42;97396.84;;;22.81;70.81
21361;BME280;10839;43.206;23.550;2022-09-03T13:46:23;97400.13;;;22.83;70.70
21361;BME280;10839;43.206;23.550;2022-09-03T13:49:01;97395.47;;;22.83;71.29
21361;BME280;10839;43.206;23.550;2022-09-03T13:51:58;97390.84;;;22.47;72.41
21361;BME280;10839;43.206;23.550;2022-09-03T13:54:30;97374.13;;;22.48;72.37
21361;BME280;10839;43.206;23.550;2022-09-03T14:05:02;97393.69;;;22.57;74.24
21361;BME280;10839;43.206;23.550;2022-09-03T14:19:16;97405.34;;;22.37;76.54
21361;BME280;10839;43.206;23.550;2022-09-03T14:21:52;97402.06;;;22.40;75.32
21361;BME280;10839;43.206;23.550;2022-09-03T14:24:21;97398.78;;;22.43;75.87
21361;BME280;10839;43.206;23.550;2022-09-03T14:26:55;97397.84;;;22.28;76.78
21361;BME280;10839;43.206;23.550;2022-09-03T14:29:32;97401.44;;;22.33;76.23
21361;BME280;10839;43.206;23.550;2022-09-03T14:38:28;97404.16;;;22.28;76.55
21361;BME280;10839;43.206;23.550;2022-09-03T14:41:29;97411.72;;;22.16;76.84
21361;BME280;10839;43.206;23.550;2022-09-03T14:44:33;97408.25;;;22.26;76.95
21361;BME280;10839;43.206;23.550;2022-09-03T15:01:27;97405.03;;;22.02;79.08
21361;BME280;10839;43.206;23.550;2022-09-03T15:12:07;97414.34;;;22.01;78.98
21361;BME280;10839;43.206;23.550;2022-09-03T15:14:45;97411.16;;;21.83;80.85
21361;BME280;10839;43.206;23.550;2022-09-03T15:26:09;97414.66;;;21.78;80.91
21361;BME280;10839;43.206;23.550;2022-09-03T15:35:09;97402.47;;;21.91;80.59
21361;BME280;10839;43.206;23.550;2022-09-03T15:40:27;97418.50;;;21.77;79.63
21361;BME280;10839;43.206;23.550;2022-09-03T15:42:59;97408.75;;;21.91;79.10
21361;BME280;10839;43.206;23.550;2022-09-03T15:48:20;97412.06;;;21.93;78.92
21361;BME280;10839;43.206;23.550;2022-09-03T15:51:11;97413.22;;;21.97;78.48
21361;BME280;10839;43.206;23.550;2022-09-03T15:54:06;97416.50;;;21.99;76.54
21361;BME280;10839;43.206;23.550;2022-09-03T15:56:45;97414.13;;;22.08;76.46
21361;BME280;10839;43.206;23.550;2022-09-03T16:00:15;97405.03;;;22.02;77.12
21361;BME280;10839;43.206;23.550;2022-09-03T16:02:18;97414.25;;;21.91;77.84
21361;BME280;10839;43.206;23.550;2022-09-03T16:07:25;97415.69;;;21.99;77.08
21361;BME280;10839;43.206;23.550;2022-09-03T16:10:11;97419.38;;;21.34;79.99
21361;BME280;10839;43.206;23.550;2022-09-03T16:12:44;97419.41;;;20.96;83.91
21361;BME280;10839;43.206;23.550;2022-09-03T16:15:25;97424.88;;;20.75;86.93
21361;BME280;10839;43.206;23.550;2022-09-03T16:18:20;97428.91;;;20.51;89.95
21361;BME280;10839;43.206;23.550;2022-09-03T16:21:11;97427.56;;;20.53;91.09
21361;BME280;10839;43.206;23.550;2022-09-03T16:23:54;97426.53;;;20.21;94.06
21361;BME280;10839;43.206;23.550;2022-09-03T16:27:02;97429.88;;;20.11;96.34